sensor_id;sensor_type;location;lat;lon;timestamp;P1;durP1;ratioP1;P2;durP2;ratioP2
51618;SDS011;38518;53.164;5.430;2022-08-21T00:02:15;5.55;;;2.42;;
51618;SDS011;38518;53.164;5.430;2022-08-21T00:04:42;5.10;;;2.10;;
51618;SDS011;38518;53.164;5.430;2022-08-21T00:07:08;6.88;;;2.38;;
51618;SDS011;38518;53.164;5.430;2022-08-21T00:09:34;5.75;;;2.42;;
51618;SDS011;38518;53.164;5.430;2022-08-21T00:12:01;4.45;;;2.20;;
51618;SDS011;38518;53.164;5.430;2022-08-21T00:14:27;5.50;;;2.50;;
51618;SDS011;38518;53.164;5.430;2022-08-21T00:16:53;6.43;;;2.50;;
51618;SDS011;38518;53.164;5.430;2022-08-21T00:19:18;5.28;;;2.28;;
51618;SDS011;38518;53.164;5.430;2022-08-21T00:21:44;5.35;;;2.55;;
51618;SDS011;38518;53.164;5.430;2022-08-21T00:24:10;6.32;;;2.33;;
51618;SDS011;38518;53.164;5.430;2022-08-21T00:26:36;6.05;;;2.20;;
51618;SDS011;38518;53.164;5.430;2022-08-21T00:29:03;4.20;;;2.10;;
51618;SDS011;38518;53.164;5.430;2022-08-21T00:31:28;7.10;;;2.72;;
51618;SDS011;38518;53.164;5.430;2022-08-21T00:33:54;6.45;;;2.67;;
51618;SDS011;38518;53.164;5.430;2022-08-21T00:36:20;6.32;;;2.38;;
51618;SDS011;38518;53.164;5.430;2022-08-21T00:38:46;6.15;;;2.25;;
51618;SDS011;38518;53.164;5.430;2022-08-21T00:41:12;5.75;;;2.20;;
51618;SDS011;38518;53.164;5.430;2022-08-21T00:43:39;6.18;;;2.47;;
51618;SDS011;38518;53.164;5.430;2022-08-21T00:46:05;6.72;;;2.63;;
51618;SDS011;38518;53.164;5.430;2022-08-21T00:48:32;5.07;;;2.58;;
51618;SDS011;38518;53.164;5.430;2022-08-21T00:51:04;5.45;;;2.40;;
51618;SDS011;38518;53.164;5.430;2022-08-21T00:53:34;5.07;;;2.17;;
51618;SDS011;38518;53.164;5.430;2022-08-21T00:56:02;7.20;;;2.60;;
51618;SDS011;38518;53.164;5.430;2022-08-21T00:58:29;6.95;;;2.50;;
51618;SDS011;38518;53.164;5.430;2022-08-21T01:00:56;5.35;;;2.20;;
51618;SDS011;38518;53.164;5.430;2022-08-21T01:03:26;6.90;;;2.78;;
51618;SDS011;38518;53.164;5.430;2022-08-21T01:05:52;4.22;;;2.20;;
51618;SDS011;38518;53.164;5.430;2022-08-21T01:08:18;7.78;;;2.67;;
51618;SDS011;38518;53.164;5.430;2022-08-21T01:10:46;6.45;;;2.72;;
51618;SDS011;38518;53.164;5.430;2022-08-21T01:13:13;5.72;;;2.33;;
51618;SDS011;38518;53.164;5.430;2022-08-21T01:15:42;7.28;;;2.60;;
51618;SDS011;38518;53.164;5.430;2022-08-21T01:18:11;6.03;;;2.55;;
51618;SDS011;38518;53.164;5.430;2022-08-21T01:20:39;7.40;;;2.67;;
51618;SDS011;38518;53.164;5.430;2022-08-21T01:23:09;6.47;;;2.40;;
51618;SDS011;38518;53.164;5.430;2022-08-21T01:25:35;5.15;;;2.30;;
51618;SDS011;38518;53.164;5.430;2022-08-21T01:28:13;5.20;;;2.50;;
51618;SDS011;38518;53.164;5.430;2022-08-21T01:30:40;5.85;;;2.60;;
51618;SDS011;38518;53.164;5.430;2022-08-21T01:33:08;5.47;;;2.55;;
51618;SDS011;38518;53.164;5.430;2022-08-21T01:35:34;4.97;;;2.85;;
51618;SDS011;38518;53.164;5.430;2022-08-21T01:38:00;5.45;;;2.50;;
51618;SDS011;38518;53.164;5.430;2022-08-21T01:40:29;9.30;;;2.95;;
51618;SDS011;38518;53.164;5.430;2022-08-21T01:42:55;4.60;;;2.20;;
51618;SDS011;38518;53.164;5.430;2022-08-21T01:45:21;6.30;;;2.47;;
51618;SDS011;38518;53.164;5.430;2022-08-21T01:47:47;5.28;;;2.67;;
51618;SDS011;38518;53.164;5.430;2022-08-21T01:50:14;8.55;;;3.08;;
51618;SDS011;38518;53.164;5.430;2022-08-21T01:52:42;6.95;;;3.35;;
51618;SDS011;38518;53.164;5.430;2022-08-21T01:55:08;6.82;;;3.38;;
51618;SDS011;38518;53.164;5.430;2022-08-21T01:57:35;8.07;;;3.20;;
51618;SDS011;38518;53.164;5.430;2022-08-21T02:00:03;8.07;;;3.08;;
51618;SDS011;38518;53.164;5.430;2022-08-21T02:02:31;6.15;;;2.72;;
51618;SDS011;38518;53.164;5.430;2022-08-21T02:04:56;6.07;;;3.00;;
51618;SDS011;38518;53.164;5.430;2022-08-21T02:07:22;6.13;;;2.50;;
51618;SDS011;38518;53.164;5.430;2022-08-21T02:09:48;7.70;;;3.13;;
51618;SDS011;38518;53.164;5.430;2022-08-21T02:12:14;6.40;;;3.05;;
51618;SDS011;38518;53.164;5.430;2022-08-21T02:14:40;6.65;;;2.92;;
51618;SDS011;38518;53.164;5.430;2022-08-21T02:17:05;6.10;;;2.90;;
51618;SDS011;38518;53.164;5.430;2022-08-21T02:19:31;6.18;;;2.88;;
51618;SDS011;38518;53.164;5.430;2022-08-21T02:21:57;5.90;;;3.05;;
51618;SDS011;38518;53.164;5.430;2022-08-21T02:24:23;6.50;;;2.65;;
51618;SDS011;38518;53.164;5.430;2022-08-21T02:26:49;6.53;;;3.28;;
51618;SDS011;38518;53.164;5.430;2022-08-21T02:29:15;8.80;;;3.00;;
51618;SDS011;38518;53.164;5.430;2022-08-21T02:31:40;7.38;;;2.97;;
51618;SDS011;38518;53.164;5.430;2022-08-21T02:34:06;8.18;;;3.28;;
51618;SDS011;38518;53.164;5.430;2022-08-21T02:36:33;6.10;;;3.05;;
51618;SDS011;38518;53.164;5.430;2022-08-21T02:38:59;8.20;;;3.28;;
51618;SDS011;38518;53.164;5.430;2022-08-21T02:41:25;10.20;;;2.97;;
51618;SDS011;38518;53.164;5.430;2022-08-21T02:43:51;5.72;;;2.90;;
51618;SDS011;38518;53.164;5.430;2022-08-21T02:46:18;8.90;;;2.70;;
51618;SDS011;38518;53.164;5.430;2022-08-21T02:48:46;8.60;;;2.58;;
51618;SDS011;38518;53.164;5.430;2022-08-21T02:51:14;7.10;;;2.42;;
51618;SDS011;38518;53.164;5.430;2022-08-21T02:53:43;8.77;;;2.90;;
51618;SDS011;38518;53.164;5.430;2022-08-21T02:56:10;8.32;;;2.33;;
51618;SDS011;38518;53.164;5.430;2022-08-21T02:58:40;7.95;;;3.00;;
51618;SDS011;38518;53.164;5.430;2022-08-21T03:01:09;6.70;;;2.97;;
51618;SDS011;38518;53.164;5.430;2022-08-21T03:03:39;6.65;;;2.75;;
51618;SDS011;38518;53.164;5.430;2022-08-21T03:06:07;9.27;;;3.03;;
51618;SDS011;38518;53.164;5.430;2022-08-21T03:08:35;8.65;;;2.65;;
51618;SDS011;38518;53.164;5.430;2022-08-21T03:11:02;9.63;;;2.88;;
51618;SDS011;38518;53.164;5.430;2022-08-21T03:13:28;9.75;;;2.60;;
51618;SDS011;38518;53.164;5.430;2022-08-21T03:15:54;8.77;;;2.42;;
51618;SDS011;38518;53.164;5.430;2022-08-21T03:18:20;10.48;;;2.97;;
51618;SDS011;38518;53.164;5.430;2022-08-21T03:20:47;9.00;;;3.20;;
51618;SDS011;38518;53.164;5.430;2022-08-21T03:23:13;6.47;;;2.80;;
51618;SDS011;38518;53.164;5.430;2022-08-21T03:25:40;7.13;;;2.55;;
51618;SDS011;38518;53.164;5.430;2022-08-21T03:28:08;8.00;;;3.00;;
51618;SDS011;38518;53.164;5.430;2022-08-21T03:30:36;6.45;;;2.38;;
51618;SDS011;38518;53.164;5.430;2022-08-21T03:33:06;9.65;;;2.85;;
51618;SDS011;38518;53.164;5.430;2022-08-21T03:35:32;8.68;;;2.92;;
51618;SDS011;38518;53.164;5.430;2022-08-21T03:37:57;9.90;;;3.60;;
51618;SDS011;38518;53.164;5.430;2022-08-21T03:40:24;8.43;;;2.70;;
51618;SDS011;38518;53.164;5.430;2022-08-21T03:42:50;8.38;;;2.58;;
51618;SDS011;38518;53.164;5.430;2022-08-21T03:45:17;11.30;;;2.88;;
51618;SDS011;38518;53.164;5.430;2022-08-21T03:47:50;6.88;;;2.35;;
51618;SDS011;38518;53.164;5.430;2022-08-21T03:50:21;5.40;;;2.42;;
51618;SDS011;38518;53.164;5.430;2022-08-21T03:52:49;8.10;;;2.65;;
51618;SDS011;38518;53.164;5.430;2022-08-21T03:55:15;7.43;;;2.40;;
51618;SDS011;38518;53.164;5.430;2022-08-21T03:57:41;8.88;;;2.95;;
51618;SDS011;38518;53.164;5.430;2022-08-21T04:00:07;8.30;;;2.92;;
51618;SDS011;38518;53.164;5.430;2022-08-21T04:02:36;7.60;;;3.22;;
51618;SDS011;38518;53.164;5.430;2022-08-21T04:05:03;9.77;;;3.00;;
51618;SDS011;38518;53.164;5.430;2022-08-21T04:07:30;9.25;;;3.42;;
51618;SDS011;38518;53.164;5.430;2022-08-21T04:09:56;10.60;;;3.42;;
51618;SDS011;38518;53.164;5.430;2022-08-21T04:12:21;8.02;;;3.15;;
51618;SDS011;38518;53.164;5.430;2022-08-21T04:14:48;11.20;;;3.35;;
51618;SDS011;38518;53.164;5.430;2022-08-21T04:17:16;8.48;;;3.80;;
51618;SDS011;38518;53.164;5.430;2022-08-21T04:19:42;10.38;;;3.05;;
51618;SDS011;38518;53.164;5.430;2022-08-21T04:22:08;8.20;;;3.22;;
51618;SDS011;38518;53.164;5.430;2022-08-21T04:24:34;7.53;;;3.40;;
51618;SDS011;38518;53.164;5.430;2022-08-21T04:27:00;7.13;;;3.05;;
51618;SDS011;38518;53.164;5.430;2022-08-21T04:29:26;6.45;;;3.05;;
51618;SDS011;38518;53.164;5.430;2022-08-21T04:31:52;7.85;;;3.53;;
51618;SDS011;38518;53.164;5.430;2022-08-21T04:34:21;7.25;;;3.15;;
51618;SDS011;38518;53.164;5.430;2022-08-21T04:36:46;9.52;;;3.22;;
51618;SDS011;38518;53.164;5.430;2022-08-21T04:39:12;9.48;;;3.10;;
51618;SDS011;38518;53.164;5.430;2022-08-21T04:41:38;9.20;;;2.90;;
51618;SDS011;38518;53.164;5.430;2022-08-21T04:44:04;8.82;;;3.10;;
51618;SDS011;38518;53.164;5.430;2022-08-21T04:46:30;8.85;;;2.97;;
51618;SDS011;38518;53.164;5.430;2022-08-21T04:48:56;6.07;;;2.83;;
51618;SDS011;38518;53.164;5.430;2022-08-21T04:51:23;9.48;;;3.17;;
51618;SDS011;38518;53.164;5.430;2022-08-21T04:54:17;8.27;;;2.88;;
51618;SDS011;38518;53.164;5.430;2022-08-21T04:56:50;8.52;;;3.03;;
51618;SDS011;38518;53.164;5.430;2022-08-21T04:59:19;8.27;;;3.45;;
51618;SDS011;38518;53.164;5.430;2022-08-21T05:01:49;8.43;;;2.85;;
51618;SDS011;38518;53.164;5.430;2022-08-21T05:04:18;7.53;;;2.90;;
51618;SDS011;38518;53.164;5.430;2022-08-21T05:06:49;8.63;;;3.20;;
51618;SDS011;38518;53.164;5.430;2022-08-21T05:09:21;10.70;;;3.20;;
51618;SDS011;38518;53.164;5.430;2022-08-21T05:11:48;10.15;;;2.90;;
51618;SDS011;38518;53.164;5.430;2022-08-21T05:14:15;10.35;;;3.47;;
51618;SDS011;38518;53.164;5.430;2022-08-21T05:16:41;9.40;;;2.60;;
51618;SDS011;38518;53.164;5.430;2022-08-21T05:19:08;11.35;;;3.05;;
51618;SDS011;38518;53.164;5.430;2022-08-21T05:21:35;7.38;;;3.00;;
51618;SDS011;38518;53.164;5.430;2022-08-21T05:24:02;7.28;;;2.72;;
51618;SDS011;38518;53.164;5.430;2022-08-21T05:26:28;11.25;;;3.15;;
51618;SDS011;38518;53.164;5.430;2022-08-21T05:28:55;10.45;;;3.00;;
51618;SDS011;38518;53.164;5.430;2022-08-21T05:31:21;12.38;;;2.92;;
51618;SDS011;38518;53.164;5.430;2022-08-21T05:33:47;8.90;;;3.13;;
51618;SDS011;38518;53.164;5.430;2022-08-21T05:36:13;10.98;;;3.25;;
51618;SDS011;38518;53.164;5.430;2022-08-21T05:38:39;9.93;;;2.90;;
51618;SDS011;38518;53.164;5.430;2022-08-21T05:41:05;9.90;;;3.25;;
51618;SDS011;38518;53.164;5.430;2022-08-21T05:43:30;11.57;;;3.00;;
51618;SDS011;38518;53.164;5.430;2022-08-21T05:46:01;7.10;;;3.17;;
51618;SDS011;38518;53.164;5.430;2022-08-21T05:48:31;9.40;;;3.30;;
51618;SDS011;38518;53.164;5.430;2022-08-21T05:50:58;11.88;;;3.00;;
51618;SDS011;38518;53.164;5.430;2022-08-21T05:53:30;9.07;;;3.30;;
51618;SDS011;38518;53.164;5.430;2022-08-21T05:55:56;9.43;;;3.22;;
51618;SDS011;38518;53.164;5.430;2022-08-21T05:58:22;9.23;;;3.25;;
51618;SDS011;38518;53.164;5.430;2022-08-21T06:00:48;6.82;;;3.10;;
51618;SDS011;38518;53.164;5.430;2022-08-21T06:03:17;9.55;;;2.92;;
51618;SDS011;38518;53.164;5.430;2022-08-21T06:05:51;12.02;;;3.42;;
51618;SDS011;38518;53.164;5.430;2022-08-21T06:08:18;9.73;;;3.05;;
51618;SDS011;38518;53.164;5.430;2022-08-21T06:10:45;9.02;;;2.80;;
51618;SDS011;38518;53.164;5.430;2022-08-21T06:13:12;7.13;;;2.50;;
51618;SDS011;38518;53.164;5.430;2022-08-21T06:15:40;10.40;;;3.20;;
51618;SDS011;38518;53.164;5.430;2022-08-21T06:18:06;8.55;;;2.70;;
51618;SDS011;38518;53.164;5.430;2022-08-21T06:20:32;8.57;;;2.92;;
51618;SDS011;38518;53.164;5.430;2022-08-21T06:22:58;9.50;;;2.72;;
51618;SDS011;38518;53.164;5.430;2022-08-21T06:25:24;5.95;;;2.70;;
51618;SDS011;38518;53.164;5.430;2022-08-21T06:27:50;10.18;;;3.15;;
51618;SDS011;38518;53.164;5.430;2022-08-21T06:30:16;8.68;;;2.75;;
51618;SDS011;38518;53.164;5.430;2022-08-21T06:32:43;5.47;;;2.78;;
51618;SDS011;38518;53.164;5.430;2022-08-21T06:35:09;8.77;;;2.58;;
51618;SDS011;38518;53.164;5.430;2022-08-21T06:37:35;8.02;;;2.97;;
51618;SDS011;38518;53.164;5.430;2022-08-21T06:40:02;9.13;;;2.83;;
51618;SDS011;38518;53.164;5.430;2022-08-21T06:42:29;7.82;;;2.80;;
51618;SDS011;38518;53.164;5.430;2022-08-21T06:44:54;6.35;;;2.75;;
51618;SDS011;38518;53.164;5.430;2022-08-21T06:47:22;9.68;;;2.97;;
51618;SDS011;38518;53.164;5.430;2022-08-21T06:49:48;8.20;;;2.88;;
51618;SDS011;38518;53.164;5.430;2022-08-21T06:52:14;9.85;;;2.92;;
51618;SDS011;38518;53.164;5.430;2022-08-21T06:54:40;11.05;;;3.17;;
51618;SDS011;38518;53.164;5.430;2022-08-21T06:57:06;7.75;;;2.42;;
51618;SDS011;38518;53.164;5.430;2022-08-21T06:59:31;8.77;;;2.45;;
51618;SDS011;38518;53.164;5.430;2022-08-21T07:01:58;9.77;;;3.30;;
51618;SDS011;38518;53.164;5.430;2022-08-21T07:04:24;6.47;;;2.58;;
51618;SDS011;38518;53.164;5.430;2022-08-21T07:06:51;9.13;;;2.50;;
51618;SDS011;38518;53.164;5.430;2022-08-21T07:09:16;10.35;;;3.17;;
51618;SDS011;38518;53.164;5.430;2022-08-21T07:11:42;7.55;;;2.65;;
51618;SDS011;38518;53.164;5.430;2022-08-21T07:14:12;9.15;;;2.90;;
51618;SDS011;38518;53.164;5.430;2022-08-21T07:16:37;9.68;;;2.75;;
51618;SDS011;38518;53.164;5.430;2022-08-21T07:19:03;8.07;;;2.50;;
51618;SDS011;38518;53.164;5.430;2022-08-21T07:21:29;9.98;;;3.03;;
51618;SDS011;38518;53.164;5.430;2022-08-21T07:23:54;6.35;;;2.38;;
51618;SDS011;38518;53.164;5.430;2022-08-21T07:26:21;7.57;;;2.53;;
51618;SDS011;38518;53.164;5.430;2022-08-21T07:28:49;7.93;;;3.50;;
51618;SDS011;38518;53.164;5.430;2022-08-21T07:31:16;6.80;;;2.47;;
51618;SDS011;38518;53.164;5.430;2022-08-21T07:33:44;6.50;;;3.13;;
51618;SDS011;38518;53.164;5.430;2022-08-21T07:36:10;7.15;;;2.40;;
51618;SDS011;38518;53.164;5.430;2022-08-21T07:38:36;9.50;;;3.30;;
51618;SDS011;38518;53.164;5.430;2022-08-21T07:41:02;9.63;;;2.92;;
51618;SDS011;38518;53.164;5.430;2022-08-21T07:43:32;6.15;;;2.17;;
51618;SDS011;38518;53.164;5.430;2022-08-21T07:45:57;10.20;;;2.83;;
51618;SDS011;38518;53.164;5.430;2022-08-21T07:48:23;8.38;;;2.60;;
51618;SDS011;38518;53.164;5.430;2022-08-21T07:50:49;9.52;;;2.92;;
51618;SDS011;38518;53.164;5.430;2022-08-21T07:53:16;7.88;;;2.85;;
51618;SDS011;38518;53.164;5.430;2022-08-21T07:55:42;6.68;;;2.33;;
51618;SDS011;38518;53.164;5.430;2022-08-21T07:58:08;8.27;;;2.67;;
51618;SDS011;38518;53.164;5.430;2022-08-21T08:00:33;7.15;;;2.65;;
51618;SDS011;38518;53.164;5.430;2022-08-21T08:03:00;6.65;;;2.15;;
51618;SDS011;38518;53.164;5.430;2022-08-21T08:05:27;4.93;;;2.30;;
51618;SDS011;38518;53.164;5.430;2022-08-21T08:07:54;6.65;;;2.70;;
51618;SDS011;38518;53.164;5.430;2022-08-21T08:10:21;7.45;;;3.28;;
51618;SDS011;38518;53.164;5.430;2022-08-21T08:12:48;5.65;;;2.58;;
51618;SDS011;38518;53.164;5.430;2022-08-21T08:15:21;6.43;;;2.50;;
51618;SDS011;38518;53.164;5.430;2022-08-21T08:17:49;7.50;;;2.80;;
51618;SDS011;38518;53.164;5.430;2022-08-21T08:20:15;7.35;;;2.70;;
51618;SDS011;38518;53.164;5.430;2022-08-21T08:22:46;6.38;;;2.60;;
51618;SDS011;38518;53.164;5.430;2022-08-21T08:25:12;6.53;;;2.53;;
51618;SDS011;38518;53.164;5.430;2022-08-21T08:27:39;5.50;;;2.50;;
51618;SDS011;38518;53.164;5.430;2022-08-21T08:30:07;8.98;;;2.72;;
51618;SDS011;38518;53.164;5.430;2022-08-21T08:32:35;6.35;;;2.92;;
51618;SDS011;38518;53.164;5.430;2022-08-21T08:35:01;6.97;;;2.80;;
51618;SDS011;38518;53.164;5.430;2022-08-21T08:37:28;8.23;;;2.92;;
51618;SDS011;38518;53.164;5.430;2022-08-21T08:39:53;6.15;;;2.60;;
51618;SDS011;38518;53.164;5.430;2022-08-21T08:42:33;8.48;;;2.78;;
51618;SDS011;38518;53.164;5.430;2022-08-21T08:45:11;7.53;;;2.97;;
51618;SDS011;38518;53.164;5.430;2022-08-21T08:47:44;7.38;;;2.25;;
51618;SDS011;38518;53.164;5.430;2022-08-21T08:50:35;9.63;;;2.88;;
51618;SDS011;38518;53.164;5.430;2022-08-21T08:53:08;5.70;;;2.50;;
51618;SDS011;38518;53.164;5.430;2022-08-21T08:55:40;6.07;;;2.42;;
51618;SDS011;38518;53.164;5.430;2022-08-21T08:58:50;5.88;;;2.40;;
51618;SDS011;38518;53.164;5.430;2022-08-21T09:00:59;6.88;;;2.33;;
51618;SDS011;38518;53.164;5.430;2022-08-21T09:03:26;5.43;;;2.28;;
51618;SDS011;38518;53.164;5.430;2022-08-21T09:06:02;5.93;;;2.45;;
51618;SDS011;38518;53.164;5.430;2022-08-21T09:12:00;3.50;;;1.98;;
51618;SDS011;38518;53.164;5.430;2022-08-21T09:25:27;3.20;;;1.90;;
51618;SDS011;38518;53.164;5.430;2022-08-21T09:27:57;5.03;;;2.10;;
51618;SDS011;38518;53.164;5.430;2022-08-21T09:30:25;3.55;;;1.58;;
51618;SDS011;38518;53.164;5.430;2022-08-21T09:32:53;4.05;;;2.00;;
51618;SDS011;38518;53.164;5.430;2022-08-21T09:35:20;5.30;;;2.53;;
51618;SDS011;38518;53.164;5.430;2022-08-21T09:38:04;4.18;;;1.77;;
51618;SDS011;38518;53.164;5.430;2022-08-21T09:40:43;4.30;;;1.83;;
51618;SDS011;38518;53.164;5.430;2022-08-21T09:45:36;5.20;;;1.77;;
51618;SDS011;38518;53.164;5.430;2022-08-21T09:48:19;4.47;;;2.25;;
51618;SDS011;38518;53.164;5.430;2022-08-21T09:50:47;3.35;;;1.80;;
51618;SDS011;38518;53.164;5.430;2022-08-21T09:53:19;5.15;;;2.00;;
51618;SDS011;38518;53.164;5.430;2022-08-21T09:55:56;6.30;;;1.90;;
51618;SDS011;38518;53.164;5.430;2022-08-21T09:58:44;5.63;;;2.13;;
51618;SDS011;38518;53.164;5.430;2022-08-21T10:01:19;4.20;;;1.92;;
51618;SDS011;38518;53.164;5.430;2022-08-21T10:03:46;5.05;;;1.92;;
51618;SDS011;38518;53.164;5.430;2022-08-21T10:06:24;5.53;;;2.13;;
51618;SDS011;38518;53.164;5.430;2022-08-21T10:09:02;5.47;;;1.90;;
51618;SDS011;38518;53.164;5.430;2022-08-21T10:11:40;4.03;;;1.80;;
51618;SDS011;38518;53.164;5.430;2022-08-21T10:14:50;5.38;;;2.00;;
51618;SDS011;38518;53.164;5.430;2022-08-21T10:17:18;4.05;;;1.92;;
51618;SDS011;38518;53.164;5.430;2022-08-21T10:20:03;4.70;;;2.08;;
51618;SDS011;38518;53.164;5.430;2022-08-21T10:28:43;4.20;;;1.75;;
51618;SDS011;38518;53.164;5.430;2022-08-21T10:36:35;4.53;;;2.25;;
51618;SDS011;38518;53.164;5.430;2022-08-21T10:41:54;3.97;;;1.77;;
51618;SDS011;38518;53.164;5.430;2022-08-21T10:47:54;6.13;;;2.03;;
51618;SDS011;38518;53.164;5.430;2022-08-21T10:50:28;3.90;;;1.90;;
51618;SDS011;38518;53.164;5.430;2022-08-21T10:53:16;6.05;;;1.80;;
51618;SDS011;38518;53.164;5.430;2022-08-21T10:55:59;3.83;;;1.70;;
51618;SDS011;38518;53.164;5.430;2022-08-21T11:01:00;5.35;;;2.10;;
51618;SDS011;38518;53.164;5.430;2022-08-21T11:03:39;5.40;;;1.88;;
51618;SDS011;38518;53.164;5.430;2022-08-21T11:08:49;5.38;;;2.08;;
51618;SDS011;38518;53.164;5.430;2022-08-21T11:11:24;5.70;;;1.98;;
51618;SDS011;38518;53.164;5.430;2022-08-21T11:16:53;5.00;;;2.10;;
51618;SDS011;38518;53.164;5.430;2022-08-21T11:19:28;7.45;;;2.30;;
51618;SDS011;38518;53.164;5.430;2022-08-21T11:24:50;4.93;;;2.10;;
51618;SDS011;38518;53.164;5.430;2022-08-21T11:27:45;4.05;;;1.77;;
51618;SDS011;38518;53.164;5.430;2022-08-21T11:30:15;4.07;;;2.03;;
51618;SDS011;38518;53.164;5.430;2022-08-21T11:38:42;6.15;;;2.08;;
51618;SDS011;38518;53.164;5.430;2022-08-21T11:41:29;5.18;;;1.80;;
51618;SDS011;38518;53.164;5.430;2022-08-21T11:46:52;4.13;;;2.30;;
51618;SDS011;38518;53.164;5.430;2022-08-21T11:54:57;3.83;;;1.70;;
51618;SDS011;38518;53.164;5.430;2022-08-21T11:57:44;6.35;;;2.20;;
51618;SDS011;38518;53.164;5.430;2022-08-21T12:00:28;2.63;;;1.60;;
51618;SDS011;38518;53.164;5.430;2022-08-21T12:03:06;5.68;;;2.00;;
51618;SDS011;38518;53.164;5.430;2022-08-21T12:06:07;4.88;;;1.80;;
51618;SDS011;38518;53.164;5.430;2022-08-21T12:08:40;4.80;;;2.00;;
51618;SDS011;38518;53.164;5.430;2022-08-21T12:13:56;5.00;;;1.90;;
51618;SDS011;38518;53.164;5.430;2022-08-21T12:16:32;3.38;;;2.08;;
51618;SDS011;38518;53.164;5.430;2022-08-21T12:19:10;4.93;;;2.30;;
51618;SDS011;38518;53.164;5.430;2022-08-21T12:24:45;4.50;;;1.83;;
51618;SDS011;38518;53.164;5.430;2022-08-21T12:27:19;5.18;;;1.83;;
51618;SDS011;38518;53.164;5.430;2022-08-21T12:32:24;4.60;;;1.92;;
51618;SDS011;38518;53.164;5.430;2022-08-21T12:42:51;5.82;;;2.30;;
51618;SDS011;38518;53.164;5.430;2022-08-21T12:47:54;5.80;;;2.10;;
51618;SDS011;38518;53.164;5.430;2022-08-21T12:53:11;5.90;;;1.70;;
51618;SDS011;38518;53.164;5.430;2022-08-21T12:55:51;4.78;;;1.90;;
51618;SDS011;38518;53.164;5.430;2022-08-21T12:58:27;6.00;;;2.30;;
51618;SDS011;38518;53.164;5.430;2022-08-21T13:00:56;4.63;;;1.98;;
51618;SDS011;38518;53.164;5.430;2022-08-21T13:03:48;8.02;;;1.90;;
51618;SDS011;38518;53.164;5.430;2022-08-21T13:06:16;5.00;;;2.13;;
51618;SDS011;38518;53.164;5.430;2022-08-21T13:08:44;4.68;;;2.13;;
51618;SDS011;38518;53.164;5.430;2022-08-21T13:11:17;5.95;;;2.30;;
51618;SDS011;38518;53.164;5.430;2022-08-21T13:13:50;5.22;;;1.95;;
51618;SDS011;38518;53.164;5.430;2022-08-21T13:16:27;4.88;;;1.73;;
51618;SDS011;38518;53.164;5.430;2022-08-21T13:18:58;5.63;;;2.22;;
51618;SDS011;38518;53.164;5.430;2022-08-21T13:21:27;5.18;;;1.98;;
51618;SDS011;38518;53.164;5.430;2022-08-21T13:24:18;4.47;;;2.13;;
51618;SDS011;38518;53.164;5.430;2022-08-21T13:26:47;5.15;;;1.92;;
51618;SDS011;38518;53.164;5.430;2022-08-21T13:29:21;5.03;;;2.10;;
51618;SDS011;38518;53.164;5.430;2022-08-21T13:31:51;5.97;;;2.10;;
51618;SDS011;38518;53.164;5.430;2022-08-21T13:34:39;7.22;;;2.30;;
51618;SDS011;38518;53.164;5.430;2022-08-21T13:37:05;5.80;;;2.58;;
51618;SDS011;38518;53.164;5.430;2022-08-21T13:39:33;8.07;;;2.80;;
51618;SDS011;38518;53.164;5.430;2022-08-21T13:42:03;6.53;;;2.60;;
51618;SDS011;38518;53.164;5.430;2022-08-21T13:44:35;5.65;;;2.13;;
51618;SDS011;38518;53.164;5.430;2022-08-21T13:47:05;6.10;;;2.08;;
51618;SDS011;38518;53.164;5.430;2022-08-21T13:49:34;5.40;;;2.35;;
51618;SDS011;38518;53.164;5.430;2022-08-21T13:52:03;7.30;;;2.58;;
51618;SDS011;38518;53.164;5.430;2022-08-21T13:54:40;6.25;;;2.50;;
51618;SDS011;38518;53.164;5.430;2022-08-21T13:57:17;7.65;;;2.53;;
51618;SDS011;38518;53.164;5.430;2022-08-21T13:59:44;8.20;;;2.47;;
51618;SDS011;38518;53.164;5.430;2022-08-21T14:02:15;6.70;;;2.35;;
51618;SDS011;38518;53.164;5.430;2022-08-21T14:04:51;7.43;;;2.30;;
51618;SDS011;38518;53.164;5.430;2022-08-21T14:07:26;6.50;;;2.40;;
51618;SDS011;38518;53.164;5.430;2022-08-21T14:10:41;7.63;;;2.78;;
51618;SDS011;38518;53.164;5.430;2022-08-21T14:12:51;10.20;;;2.60;;
51618;SDS011;38518;53.164;5.430;2022-08-21T14:15:23;5.20;;;2.58;;
51618;SDS011;38518;53.164;5.430;2022-08-21T14:17:53;6.25;;;2.60;;
51618;SDS011;38518;53.164;5.430;2022-08-21T14:20:29;5.43;;;2.40;;
51618;SDS011;38518;53.164;5.430;2022-08-21T14:22:58;6.43;;;2.35;;
51618;SDS011;38518;53.164;5.430;2022-08-21T14:30:29;5.63;;;2.17;;
51618;SDS011;38518;53.164;5.430;2022-08-21T14:32:57;5.90;;;2.50;;
51618;SDS011;38518;53.164;5.430;2022-08-21T14:35:24;7.85;;;2.70;;
51618;SDS011;38518;53.164;5.430;2022-08-21T14:37:50;8.35;;;2.88;;
51618;SDS011;38518;53.164;5.430;2022-08-21T14:40:22;6.25;;;2.47;;
51618;SDS011;38518;53.164;5.430;2022-08-21T14:42:49;7.35;;;2.53;;
51618;SDS011;38518;53.164;5.430;2022-08-21T14:45:17;7.10;;;2.38;;
51618;SDS011;38518;53.164;5.430;2022-08-21T14:47:48;5.25;;;2.15;;
51618;SDS011;38518;53.164;5.430;2022-08-21T14:50:14;7.35;;;2.50;;
51618;SDS011;38518;53.164;5.430;2022-08-21T14:52:41;6.68;;;2.63;;
51618;SDS011;38518;53.164;5.430;2022-08-21T14:55:08;5.93;;;2.70;;
51618;SDS011;38518;53.164;5.430;2022-08-21T14:57:50;8.25;;;2.58;;
51618;SDS011;38518;53.164;5.430;2022-08-21T15:00:20;7.85;;;2.88;;
51618;SDS011;38518;53.164;5.430;2022-08-21T15:02:50;6.97;;;2.40;;
51618;SDS011;38518;53.164;5.430;2022-08-21T15:05:17;8.05;;;3.05;;
51618;SDS011;38518;53.164;5.430;2022-08-21T15:07:46;6.35;;;2.67;;
51618;SDS011;38518;53.164;5.430;2022-08-21T15:10:11;5.80;;;2.58;;
51618;SDS011;38518;53.164;5.430;2022-08-21T15:12:40;5.97;;;2.20;;
51618;SDS011;38518;53.164;5.430;2022-08-21T15:15:07;7.25;;;2.78;;
51618;SDS011;38518;53.164;5.430;2022-08-21T15:17:33;4.88;;;2.13;;
51618;SDS011;38518;53.164;5.430;2022-08-21T15:19:59;4.85;;;2.30;;
51618;SDS011;38518;53.164;5.430;2022-08-21T15:22:25;4.90;;;2.30;;
51618;SDS011;38518;53.164;5.430;2022-08-21T15:24:51;7.63;;;2.80;;
51618;SDS011;38518;53.164;5.430;2022-08-21T15:27:17;5.63;;;2.70;;
51618;SDS011;38518;53.164;5.430;2022-08-21T15:29:44;4.88;;;2.40;;
51618;SDS011;38518;53.164;5.430;2022-08-21T15:32:18;5.82;;;2.50;;
51618;SDS011;38518;53.164;5.430;2022-08-21T15:34:47;5.45;;;2.53;;
51618;SDS011;38518;53.164;5.430;2022-08-21T15:37:13;6.10;;;3.05;;
51618;SDS011;38518;53.164;5.430;2022-08-21T15:39:41;10.13;;;2.70;;
51618;SDS011;38518;53.164;5.430;2022-08-21T15:42:06;9.55;;;2.72;;
51618;SDS011;38518;53.164;5.430;2022-08-21T15:44:34;6.13;;;2.30;;
51618;SDS011;38518;53.164;5.430;2022-08-21T15:47:00;6.68;;;2.67;;
51618;SDS011;38518;53.164;5.430;2022-08-21T15:49:26;5.88;;;3.10;;
51618;SDS011;38518;53.164;5.430;2022-08-21T15:51:55;7.35;;;2.78;;
51618;SDS011;38518;53.164;5.430;2022-08-21T15:54:20;5.43;;;3.00;;
51618;SDS011;38518;53.164;5.430;2022-08-21T15:56:47;7.13;;;2.67;;
51618;SDS011;38518;53.164;5.430;2022-08-21T15:59:17;5.93;;;2.60;;
51618;SDS011;38518;53.164;5.430;2022-08-21T16:01:47;7.65;;;3.15;;
51618;SDS011;38518;53.164;5.430;2022-08-21T16:04:18;6.72;;;3.17;;
51618;SDS011;38518;53.164;5.430;2022-08-21T16:06:47;7.97;;;3.20;;
51618;SDS011;38518;53.164;5.430;2022-08-21T16:09:14;7.40;;;2.78;;
51618;SDS011;38518;53.164;5.430;2022-08-21T16:11:43;7.82;;;3.22;;
51618;SDS011;38518;53.164;5.430;2022-08-21T16:14:10;7.63;;;3.08;;
51618;SDS011;38518;53.164;5.430;2022-08-21T16:16:39;7.13;;;3.00;;
51618;SDS011;38518;53.164;5.430;2022-08-21T16:19:04;7.13;;;2.90;;
51618;SDS011;38518;53.164;5.430;2022-08-21T16:21:31;4.43;;;2.80;;
51618;SDS011;38518;53.164;5.430;2022-08-21T16:23:57;7.65;;;3.17;;
51618;SDS011;38518;53.164;5.430;2022-08-21T16:26:23;5.60;;;2.75;;
51618;SDS011;38518;53.164;5.430;2022-08-21T16:28:50;7.90;;;3.33;;